Time;durP1;ratioP1;P1;durP2;ratioP2;P2;SDS_P1;SDS_P2;PMS_P1;PMS_P2;Temp;Humidity;BMP_temperature;BMP_pressure;BME280_temperature;BME280_humidity;BME280_pressure;Samples;Min_cycle;Max_cycle;Signal;HPM_P1;HPM_P2
2023/03/11 00:00:43;;;;;;;0.95;0.95;;;;;;;0.76;100.00;100776.59;10417445;28;20041;-71
2023/03/11 00:05:44;;;;;;;3.10;1.02;;;;;;;0.69;100.00;100781.63;10417490;28;20109;-71
2023/03/11 00:10:45;;;;;;;1.98;1.33;;;;;;;0.71;100.00;100792.19;10415841;28;20037;-71
2023/03/11 00:15:47;;;;;;;6.38;1.30;;;;;;;0.64;100.00;100794.53;10415343;28;20048;-71
2023/03/11 00:20:48;;;;;;;3.25;1.92;;;;;;;0.60;100.00;100800.25;10416241;28;20037;-71
2023/03/11 00:25:48;;;;;;;1.58;1.30;;;;;;;0.48;100.00;100810.19;10417398;28;20061;-71
2023/03/11 00:30:48;;;;;;;7.28;2.28;;;;;;;0.40;100.00;100818.84;10416306;28;20033;-71
2023/03/11 00:35:49;;;;;;;3.25;1.95;;;;;;;0.48;100.00;100834.19;10433221;28;20056;-71
2023/03/11 00:40:49;;;;;;;5.50;1.77;;;;;;;0.51;100.00;100833.03;10415619;28;20390;-71
2023/03/11 00:45:50;;;;;;;1.52;1.40;;;;;;;0.55;100.00;100826.50;10398175;28;20184;-71
2023/03/11 00:50:50;;;;;;;1.52;1.42;;;;;;;0.57;100.00;100817.34;10414491;28;20112;-71
2023/03/11 00:55:51;;;;;;;2.47;1.48;;;;;;;0.68;100.00;100822.59;10415561;28;20034;-71
2023/03/11 01:00:51;;;;;;;17.65;2.05;;;;;;;0.62;100.00;100828.47;10415267;28;20139;-71
2023/03/11 01:05:52;;;;;;;1.65;1.25;;;;;;;0.57;100.00;100836.00;10413573;28;20049;-71
2023/03/11 01:10:52;;;;;;;6.18;2.00;;;;;;;0.46;100.00;100844.13;10415603;28;20033;-71
2023/03/11 01:15:53;;;;;;;2.58;1.67;;;;;;;0.33;100.00;100843.50;10416315;28;20038;-71
2023/03/11 01:20:53;;;;;;;2.85;1.73;;;;;;;0.19;100.00;100839.34;10398221;28;20049;-71
2023/03/11 01:25:54;;;;;;;1.63;1.15;;;;;;;0.12;100.00;100847.00;10412916;28;20128;-71
2023/03/11 01:30:54;;;;;;;1.65;1.25;;;;;;;0.09;100.00;100843.78;10415071;28;20514;-71
2023/03/11 01:35:55;;;;;;;6.97;2.70;;;;;;;0.06;100.00;100846.69;10413262;28;20073;-71
2023/03/11 01:40:55;;;;;;;9.65;1.88;;;;;;;0.14;100.00;100854.88;10415606;28;20112;-71
2023/03/11 01:45:55;;;;;;;6.28;1.73;;;;;;;0.25;100.00;100851.28;10412536;28;20477;-71
2023/03/11 01:50:56;;;;;;;2.88;2.10;;;;;;;0.26;100.00;100859.16;10415468;28;20034;-71
2023/03/11 01:55:56;;;;;;;5.78;1.48;;;;;;;0.30;100.00;100862.41;10396986;28;20275;-71
2023/03/11 02:00:57;;;;;;;1.17;1.17;;;;;;;0.24;100.00;100855.78;10418926;28;20380;-71
2023/03/11 02:05:59;;;;;;;8.30;2.38;;;;;;;0.28;100.00;100867.84;10421567;28;20437;-71
2023/03/11 02:11:00;;;;;;;4.40;1.38;;;;;;;0.32;100.00;100865.75;10406239;28;20112;-71
2023/03/11 02:16:01;;;;;;;7.32;1.92;;;;;;;0.36;100.00;100868.03;10404353;28;20033;-71
2023/03/11 02:21:20;;;;;;;2.15;1.73;;;;;;;0.32;100.00;100865.75;10421336;28;20041;-71
2023/03/11 02:26:22;;;;;;;3.50;1.98;;;;;;;0.26;100.00;100859.16;10422863;28;20049;-71
2023/03/11 02:31:23;;;;;;;1.77;1.60;;;;;;;0.28;100.00;100857.19;10419956;28;20037;-71
2023/03/11 02:36:34;;;;;;;1.77;1.67;;;;;;;0.23;100.00;100854.94;10404356;28;20033;-71
2023/03/11 02:41:37;;;;;;;6.32;1.25;;;;;;;0.34;100.00;100866.47;10421830;28;20048;-71
2023/03/11 02:46:38;;;;;;;7.75;1.88;;;;;;;0.23;100.00;100865.59;10403966;28;20026;-71
2023/03/11 02:51:39;;;;;;;6.63;1.88;;;;;;;0.15;100.00;100865.38;10421012;28;20025;-71
2023/03/11 02:56:39;;;;;;;4.78;1.42;;;;;;;0.04;100.00;100878.78;10420258;28;20471;-71
2023/03/11 03:01:40;;;;;;;3.30;1.55;;;;;;;0.04;100.00;100880.63;10420617;28;20476;-71
2023/03/11 03:06:40;;;;;;;1.92;1.52;;;;;;;-0.08;100.00;100883.31;10419200;28;20092;-71
2023/03/11 03:11:40;;;;;;;1.88;1.45;;;;;;;-0.14;100.00;100888.31;10419314;28;20087;-71
2023/03/11 03:16:41;;;;;;;1.77;1.48;;;;;;;-0.26;100.00;100890.19;10419412;28;20422;-71
2023/03/11 03:21:41;;;;;;;1.73;1.60;;;;;;;-0.32;100.00;100890.69;10419491;28;20117;-71
2023/03/11 03:26:42;;;;;;;3.70;1.80;;;;;;;-0.47;100.00;100909.63;10419841;28;20167;-71
2023/03/11 03:31:42;;;;;;;1.60;1.50;;;;;;;-0.47;100.00;100917.59;10417507;28;20057;-71
2023/03/11 03:36:43;;;;;;;4.15;1.73;;;;;;;-0.37;100.00;100912.38;10418187;28;20040;-71
2023/03/11 03:41:43;;;;;;;2.00;1.35;;;;;;;-0.29;100.00;100923.22;10419074;28;20493;-71
2023/03/11 03:46:44;;;;;;;1.80;1.63;;;;;;;-0.38;100.00;100920.47;10418167;28;20037;-71
2023/03/11 03:51:44;;;;;;;2.25;1.30;;;;;;;-0.48;100.00;100936.31;10416933;28;20498;-71
2023/03/11 03:56:44;;;;;;;2.60;1.67;;;;;;;-0.51;100.00;100944.56;10418169;28;20124;-71
2023/03/11 04:01:45;;;;;;;1.50;1.17;;;;;;;-0.60;100.00;100940.84;10400720;28;20096;-71
2023/03/11 04:06:45;;;;;;;2.63;2.10;;;;;;;-0.72;100.00;100937.34;10416289;28;20057;-71
2023/03/11 04:11:46;;;;;;;1.65;1.55;;;;;;;-0.76;100.00;100925.28;10417283;28;20038;-71
2023/03/11 04:16:46;;;;;;;2.00;1.48;;;;;;;-0.75;100.00;100931.44;10418170;28;20037;-71
2023/03/11 04:21:47;;;;;;;8.05;1.98;;;;;;;-0.84;100.00;100943.66;10417649;28;20124;-71
2023/03/11 04:26:47;;;;;;;8.52;1.92;;;;;;;-0.95;100.00;100943.69;10417765;28;20037;-71
2023/03/11 04:31:48;;;;;;;4.93;2.65;;;;;;;-1.00;100.00;100938.72;10416536;28;20041;-72
2023/03/11 04:36:53;;;;;;;7.95;1.70;;;;;;;-1.04;100.00;100953.22;10415684;28;20071;-71
2023/03/11 04:41:54;;;;;;;3.13;1.55;;;;;;;-1.14;100.00;100960.25;10416807;28;20041;-71
2023/03/11 04:46:54;;;;;;;9.90;1.85;;;;;;;-1.17;100.00;100963.13;10398213;28;20392;-72
2023/03/11 04:51:54;;;;;;;5.97;1.80;;;;;;;-1.24;100.00;100962.78;10415644;28;20099;-72
2023/03/11 04:56:55;;;;;;;2.95;1.77;;;;;;;-1.34;100.00;100955.63;10415785;28;20465;-72
2023/03/11 05:01:55;;;;;;;5.63;2.35;;;;;;;-1.35;100.00;100976.03;10415545;28;20366;-72
2023/03/11 05:06:56;;;;;;;3.13;1.95;;;;;;;-1.39;100.00;100966.63;10414759;28;20061;-72
2023/03/11 05:11:56;;;;;;;6.38;2.05;;;;;;;-1.41;100.00;100972.03;10415646;28;20087;-72
2023/03/11 05:16:57;;;;;;;7.00;1.98;;;;;;;-1.45;100.00;100978.56;10414507;28;20033;-72
2023/03/11 05:21:57;;;;;;;6.35;2.20;;;;;;;-1.51;100.00;100980.84;10414160;28;20053;-72
2023/03/11 05:26:58;;;;;;;2.00;1.70;;;;;;;-1.55;100.00;100985.53;10413593;28;20091;-72
2023/03/11 05:31:58;;;;;;;9.40;3.25;;;;;;;-1.60;100.00;100979.72;10414044;28;20129;-72
2023/03/11 05:37:00;;;;;;;2.08;1.80;;;;;;;-1.64;100.00;100994.19;10410649;28;20130;-71
2023/03/11 05:42:01;;;;;;;1.70;1.60;;;;;;;-1.66;100.00;100991.69;10428352;28;20091;-72
2023/03/11 05:47:01;;;;;;;9.00;3.13;;;;;;;-1.70;100.00;100990.19;10428810;28;20065;-71
2023/03/11 05:52:02;;;;;;;1.65;1.55;;;;;;;-1.77;100.00;101009.38;10427817;28;20078;-71
2023/03/11 05:57:02;;;;;;;6.32;2.28;;;;;;;-1.85;100.00;101006.44;10427303;28;20029;-71
2023/03/11 06:02:03;;;;;;;2.08;1.88;;;;;;;-1.87;100.00;101001.25;10425978;28;20059;-71
2023/03/11 06:07:03;;;;;;;5.07;2.03;;;;;;;-1.92;100.00;101011.34;10427754;28;20107;-71
2023/03/11 06:12:04;;;;;;;2.50;2.15;;;;;;;-1.89;100.00;101019.09;10427179;28;20041;-71
2023/03/11 06:17:04;;;;;;;2.00;1.55;;;;;;;-1.94;100.00;101023.91;10426954;28;20037;-71
2023/03/11 06:22:05;;;;;;;3.08;2.33;;;;;;;-1.77;100.00;101036.75;10428753;28;20064;-71
2023/03/11 06:27:08;;;;;;;2.83;2.38;;;;;;;-1.56;100.00;101030.78;10426817;28;20112;-71
2023/03/11 06:32:08;;;;;;;8.57;3.10;;;;;;;-1.29;100.00;101041.97;10430115;28;20033;-71
2023/03/11 06:37:09;;;;;;;1.58;1.48;;;;;;;-1.09;100.00;101036.94;10428876;28;20037;-71
2023/03/11 06:42:10;;;;;;;10.65;2.28;;;;;;;-0.59;100.00;101050.75;10426246;28;20556;-72
2023/03/11 06:47:11;;;;;;;6.03;2.67;;;;;;;-0.43;100.00;101059.19;10404923;28;20063;-72
2023/03/11 06:52:12;;;;;;;2.03;1.92;;;;;;;0.17;100.00;101047.19;10419057;28;20445;-72
2023/03/11 06:57:12;;;;;;;2.42;2.20;;;;;;;0.70;100.00;101059.66;10419043;28;20112;-72
2023/03/11 07:02:13;;;;;;;9.68;3.63;;;;;;;1.45;100.00;101061.19;10418997;28;20091;-72
2023/03/11 07:07:14;;;;;;;2.20;1.98;;;;;;;2.08;100.00;101060.94;10419826;28;20148;-72
2023/03/11 07:12:14;;;;;;;5.43;3.47;;;;;;;3.12;100.00;101070.00;10417788;28;20116;-72
2023/03/11 07:17:14;;;;;;;3.85;2.50;;;;;;;4.27;100.00;101074.94;10419489;28;20045;-72
2023/03/11 07:22:15;;;;;;;5.22;2.40;;;;;;;5.02;100.00;101071.91;10418540;28;20068;-72
2023/03/11 07:27:15;;;;;;;11.15;2.50;;;;;;;5.80;100.00;101072.66;10419006;28;20124;-72
2023/03/11 07:32:16;;;;;;;5.85;3.38;;;;;;;6.63;100.00;101069.16;10418794;28;20116;-72
2023/03/11 07:37:16;;;;;;;6.50;2.45;;;;;;;7.40;100.00;101071.44;10418605;28;20095;-72
2023/03/11 07:42:16;;;;;;;9.88;3.03;;;;;;;7.89;100.00;101087.44;10418012;28;20123;-72
2023/03/11 07:47:17;;;;;;;5.63;3.42;;;;;;;8.60;100.00;101089.06;10417011;28;20112;-72
2023/03/11 07:52:17;;;;;;;5.13;2.92;;;;;;;8.72;100.00;101092.19;10418822;28;20111;-73
2023/03/11 07:57:18;;;;;;;6.75;4.05;;;;;;;8.34;100.00;101105.56;10417456;28;20042;-72
2023/03/11 08:02:18;;;;;;;3.40;2.63;;;;;;;7.81;100.00;101103.63;10417821;28;20049;-72
2023/03/11 08:07:19;;;;;;;4.80;2.45;;;;;;;8.14;100.00;101102.50;10417514;28;20117;-72
2023/03/11 08:12:20;;;;;;;3.78;2.58;;;;;;;8.79;100.00;101109.34;10417806;28;20037;-72
2023/03/11 08:17:20;;;;;;;3.65;2.42;;;;;;;9.34;100.00;101115.44;10417187;28;20116;-73
2023/03/11 08:22:20;;;;;;;2.50;1.95;;;;;;;9.74;100.00;101132.28;10417142;28;20112;-74
2023/03/11 08:27:21;;;;;;;5.80;1.35;;;;;;;9.93;100.00;101134.41;10419339;28;20080;-71
2023/03/11 08:32:21;;;;;;;5.43;1.88;;;;;;;10.45;100.00;101116.34;10419583;28;20038;-71
2023/03/11 08:37:22;;;;;;;5.10;1.63;;;;;;;10.41;100.00;101128.56;10419707;28;20138;-73
2023/03/11 08:42:22;;;;;;;2.70;1.55;;;;;;;10.97;100.00;101136.00;10418878;28;20185;-73
2023/03/11 08:47:23;;;;;;;2.45;1.75;;;;;;;10.81;100.00;101150.66;10419449;28;20041;-72
2023/03/11 08:52:23;;;;;;;5.85;1.95;;;;;;;10.63;100.00;101137.56;10420692;28;20057;-73
2023/03/11 08:57:24;;;;;;;3.25;1.48;;;;;;;10.86;100.00;101140.94;10418149;28;20041;-73
2023/03/11 09:02:24;;;;;;;6.20;2.20;;;;;;;10.84;100.00;101142.97;10417227;28;20040;-73
2023/03/11 09:07:25;;;;;;;4.28;1.70;;;;;;;10.78;100.00;101151.88;10413403;28;20041;-73
2023/03/11 09:12:25;;;;;;;2.42;1.20;;;;;;;9.71;100.00;101147.00;10415133;28;20041;-73
2023/03/11 09:17:26;;;;;;;2.08;1.17;;;;;;;8.53;100.00;101155.59;10415232;28;20120;-73
2023/03/11 09:22:27;;;;;;;2.53;1.42;;;;;;;7.99;100.00;101166.28;10413904;28;20057;-73
2023/03/11 09:27:27;;;;;;;1.40;1.30;;;;;;;7.97;100.00;101162.06;10381645;28;20029;-73
2023/03/11 09:32:28;;;;;;;6.78;2.05;;;;;;;8.50;100.00;101166.75;10414697;28;20459;-73
2023/03/11 09:37:29;;;;;;;1.42;1.33;;;;;;;9.12;100.00;101168.50;10413907;28;20431;-74
2023/03/11 09:42:44;;;;;;;2.65;1.23;;;;;;;9.05;100.00;101152.19;10414310;28;20465;-73
2023/03/11 09:47:55;;;;;;;2.95;1.42;;;;;;;8.89;100.00;101159.56;10413715;28;20037;-73
2023/03/11 09:53:16;;;;;;;1.73;1.63;;;;;;;8.70;100.00;101174.38;10396966;28;20041;-73
2023/03/11 09:58:39;;;;;;;3.38;1.30;;;;;;;8.59;100.00;101175.66;10414363;28;20036;-73
2023/03/11 10:03:39;;;;;;;3.40;1.65;;;;;;;8.64;100.00;101175.09;10414560;28;20056;-74
2023/03/11 10:09:09;;;;;;;1.00;1.00;;;;;;;8.51;100.00;101170.28;10395108;28;20463;-73
2023/03/11 10:14:32;;;;;;;4.45;1.40;;;;;;;8.38;100.00;101174.38;10411660;28;20432;-75
2023/03/11 10:19:42;;;;;;;4.18;2.20;;;;;;;8.34;100.00;101161.41;10394138;28;20129;-74
2023/03/11 10:24:56;;;;;;;2.85;1.88;;;;;;;8.58;100.00;101163.13;10421463;28;20076;-76
2023/03/11 10:30:13;;;;;;;2.67;1.38;;;;;;;8.57;100.00;101162.31;10404086;28;20037;-73
2023/03/11 10:35:16;;;;;;;0.98;0.95;;;;;;;8.26;100.00;101164.13;10419535;28;20026;-72
2023/03/11 10:40:19;;;;;;;6.40;1.65;;;;;;;8.25;100.00;101167.84;10421297;28;20033;-73
2023/03/11 10:45:22;;;;;;;3.55;1.58;;;;;;;8.46;100.00;101176.22;10421180;28;20438;-73
2023/03/11 10:50:22;;;;;;;4.30;1.13;;;;;;;8.67;100.00;101182.84;10419117;28;20025;-72
2023/03/11 10:55:23;;;;;;;6.10;1.02;;;;;;;8.95;100.00;101188.56;10423458;28;20045;-73
2023/03/11 11:00:28;;;;;;;7.78;1.48;;;;;;;9.08;100.00;101186.94;10403129;28;20059;-72
2023/03/11 11:05:32;;;;;;;1.90;1.23;;;;;;;8.98;100.00;101190.91;10422448;28;20033;-72
2023/03/11 11:10:34;;;;;;;7.68;0.85;;;;;;;9.83;100.00;101184.38;10421043;28;20030;-72
2023/03/11 11:15:36;;;;;;;7.03;1.60;;;;;;;10.59;100.00;101187.72;10420481;28;20037;-72
2023/03/11 11:20:36;;;;;;;11.15;2.40;;;;;;;11.76;100.00;101193.59;10401635;28;20047;-72
2023/03/11 11:25:37;;;;;;;1.08;1.08;;;;;;;12.03;100.00;101180.25;10401532;28;20049;-73
2023/03/11 11:30:38;;;;;;;1.33;1.05;;;;;;;12.07;100.00;101182.34;10400600;28;20036;-73
2023/03/11 11:35:47;;;;;;;3.42;1.70;;;;;;;12.12;100.00;101179.03;10400815;28;20108;-73
2023/03/11 11:40:47;;;;;;;6.97;2.35;;;;;;;12.71;100.00;101177.59;10402239;28;20083;-72
2023/03/11 11:45:54;;;;;;;8.52;1.38;;;;;;;13.21;100.00;101176.22;10400934;28;20138;-72
2023/03/11 11:50:56;;;;;;;2.63;1.55;;;;;;;13.21;100.00;101167.25;10417511;28;20045;-72
2023/03/11 11:55:57;;;;;;;1.67;1.55;;;;;;;13.02;100.00;101177.06;10400267;28;20083;-72
2023/03/11 12:01:18;;;;;;;5.07;1.65;;;;;;;12.98;100.00;101162.19;10417238;28;20507;-72
2023/03/11 12:06:37;;;;;;;3.00;1.77;;;;;;;12.77;100.00;101166.75;10385390;28;20117;-71
2023/03/11 12:11:44;;;;;;;3.50;2.15;;;;;;;12.97;100.00;101168.66;10416573;28;20040;-71
2023/03/11 12:16:47;;;;;;;9.25;2.25;;;;;;;13.20;100.00;101160.09;10416154;28;20523;-71
2023/03/11 12:21:59;;;;;;;11.05;2.15;;;;;;;13.07;100.00;101163.66;10416661;28;20106;-71
2023/03/11 12:27:03;;;;;;;6.30;1.60;;;;;;;12.77;100.00;101161.31;10415303;28;20056;-71
2023/03/11 12:32:03;;;;;;;2.20;1.45;;;;;;;13.14;100.00;101167.22;10398008;28;20041;-71
2023/03/11 12:37:04;;;;;;;6.93;2.83;;;;;;;12.17;100.00;101173.84;10415664;28;20466;-73
2023/03/11 12:42:21;;;;;;;1.85;1.75;;;;;;;12.87;100.00;101177.22;10397860;28;20373;-72
2023/03/11 12:47:22;;;;;;;4.03;1.40;;;;;;;13.33;100.00;101173.75;10416919;28;20041;-70
2023/03/11 12:52:25;;;;;;;8.20;1.73;;;;;;;13.26;100.00;101160.13;10415263;28;20029;-72
2023/03/11 12:57:47;;;;;;;3.80;1.70;;;;;;;13.41;100.00;101150.94;10398610;28;20036;-72
2023/03/11 13:03:05;;;;;;;1.73;1.52;;;;;;;13.26;100.00;101164.75;10416055;28;20038;-73
2023/03/11 13:08:27;;;;;;;2.55;2.35;;;;;;;13.57;100.00;101150.50;10398339;28;20489;-73
2023/03/11 13:13:40;;;;;;;2.47;1.40;;;;;;;13.31;100.00;101145.94;10415392;28;20029;-74
2023/03/11 13:18:45;;;;;;;1.73;1.50;;;;;;;12.78;100.00;101149.38;10413685;28;20033;-71
2023/03/11 13:23:45;;;;;;;1.60;1.50;;;;;;;12.39;100.00;101141.16;10414619;28;20060;-71
2023/03/11 13:29:27;;;;;;;3.05;1.83;;;;;;;12.18;100.00;101151.06;10396787;28;20029;-71
2023/03/11 13:34:45;;;;;;;1.35;1.27;;;;;;;11.89;100.00;101157.59;10414013;28;20116;-72
2023/03/11 13:39:58;;;;;;;1.35;0.73;;;;;;;10.72;100.00;101158.09;10413719;28;20128;-71
2023/03/11 13:44:58;;;;;;;3.38;2.17;;;;;;;10.47;100.00;101153.03;10413772;28;20022;-71
2023/03/11 13:50:07;;;;;;;4.13;1.25;;;;;;;10.52;100.00;101151.59;10397028;28;20036;-72
2023/03/11 13:55:19;;;;;;;2.85;1.60;;;;;;;11.31;100.00;101163.22;10417082;28;20033;-72
2023/03/11 14:00:24;;;;;;;1.85;1.42;;;;;;;11.21;100.00;101162.72;10420527;28;20034;-71
2023/03/11 14:05:31;;;;;;;4.32;1.42;;;;;;;11.69;100.00;101162.88;10422113;28;20033;-71
2023/03/11 14:10:32;;;;;;;2.03;1.50;;;;;;;11.44;100.00;101167.91;10387883;28;20481;-71
2023/03/11 14:15:39;;;;;;;4.32;2.45;;;;;;;11.27;100.00;101172.78;10420440;28;20033;-71
2023/03/11 14:20:40;;;;;;;6.22;1.27;;;;;;;10.20;100.00;101181.59;10404761;28;20037;-72
2023/03/11 14:25:40;;;;;;;1.15;1.15;;;;;;;9.69;100.00;101188.75;10422332;28;20057;-72
2023/03/11 14:30:41;;;;;;;2.05;1.60;;;;;;;10.57;100.00;101176.25;10420104;28;20057;-72
2023/03/11 14:35:41;;;;;;;6.03;2.03;;;;;;;11.13;100.00;101182.66;10403710;28;20124;-72
2023/03/11 14:40:42;;;;;;;1.92;1.23;;;;;;;10.78;100.00;101167.28;10386946;28;20041;-72
2023/03/11 14:45:42;;;;;;;1.77;1.42;;;;;;;10.72;100.00;101171.63;10422559;28;20485;-72
2023/03/11 14:50:43;;;;;;;1.98;1.48;;;;;;;10.50;100.00;101167.19;10420926;28;20030;-70
2023/03/11 14:55:50;;;;;;;2.42;1.52;;;;;;;10.30;100.00;101169.66;10385748;28;20142;-74
2023/03/11 15:01:18;;;;;;;3.22;1.63;;;;;;;9.32;100.00;101185.91;10373530;28;20057;-71
2023/03/11 15:06:19;;;;;;;2.17;1.55;;;;;;;9.71;100.00;101190.25;10394886;28;20065;-74
2023/03/11 15:11:24;;;;;;;1.80;1.38;;;;;;;9.95;100.00;101183.72;10419158;28;20032;-72
2023/03/11 15:16:32;;;;;;;3.30;1.38;;;;;;;9.58;100.00;101191.94;10420905;28;20029;-71
2023/03/11 15:21:32;;;;;;;6.45;1.45;;;;;;;9.01;100.00;101188.69;10418024;28;20057;-74
2023/03/11 15:26:33;;;;;;;2.15;1.17;;;;;;;8.37;100.00;101188.03;10418085;28;20073;-73
2023/03/11 15:31:37;;;;;;;5.53;2.15;;;;;;;7.73;100.00;101189.94;10402056;28;20081;-73
2023/03/11 15:36:39;;;;;;;4.65;1.83;;;;;;;7.22;100.00;101180.22;10400939;28;20148;-71
2023/03/11 15:41:40;;;;;;;0.85;0.75;;;;;;;6.92;100.00;101183.56;10401089;28;20051;-74
2023/03/11 15:46:41;;;;;;;1.02;1.00;;;;;;;6.90;100.00;101174.84;10418854;28;20041;-72
2023/03/11 15:51:41;;;;;;;5.85;2.28;;;;;;;6.94;100.00;101182.41;10400629;28;20041;-73
2023/03/11 15:56:41;;;;;;;3.58;1.88;;;;;;;6.98;100.00;101181.06;10418034;28;20083;-73
2023/03/11 16:01:42;;;;;;;5.13;0.98;;;;;;;6.98;100.00;101175.66;10418385;28;20376;-73
2023/03/11 16:06:42;;;;;;;3.28;1.52;;;;;;;6.85;100.00;101174.47;10416264;28;20038;-72
2023/03/11 16:11:43;;;;;;;2.70;1.52;;;;;;;6.45;100.00;101179.63;10400251;28;20041;-72
2023/03/11 16:16:43;;;;;;;9.68;2.20;;;;;;;6.11;100.00;101185.03;10416339;28;20353;-72
2023/03/11 16:21:45;;;;;;;4.07;1.65;;;;;;;5.78;100.00;101174.09;10416919;28;20120;-72
2023/03/11 16:26:46;;;;;;;2.83;1.58;;;;;;;5.66;100.00;101185.28;10415305;28;20049;-72
2023/03/11 16:31:48;;;;;;;2.13;1.52;;;;;;;5.60;100.00;101189.44;10416495;28;20116;-72
2023/03/11 16:36:48;;;;;;;5.18;2.03;;;;;;;5.50;100.00;101173.41;10415044;28;20048;-72
2023/03/11 16:41:48;;;;;;;4.30;1.67;;;;;;;5.43;100.00;101174.22;10416145;28;20037;-72
2023/03/11 16:46:49;;;;;;;7.43;1.83;;;;;;;5.27;100.00;101166.88;10416720;28;20041;-72
2023/03/11 16:51:49;;;;;;;6.47;2.15;;;;;;;5.07;100.00;101163.53;10414554;28;20033;-72
2023/03/11 16:56:50;;;;;;;1.58;1.48;;;;;;;4.90;100.00;101165.22;10415751;28;20392;-72
2023/03/11 17:01:50;;;;;;;8.73;1.83;;;;;;;4.74;100.00;101184.69;10398245;28;20064;-72
2023/03/11 17:06:51;;;;;;;2.13;1.75;;;;;;;4.56;100.00;101175.78;10415233;28;20457;-72
2023/03/11 17:11:52;;;;;;;4.53;1.67;;;;;;;4.36;100.00;101183.97;10413948;28;20044;-72
2023/03/11 17:16:52;;;;;;;1.63;1.52;;;;;;;4.15;100.00;101175.34;10414923;28;20385;-72
2023/03/11 17:21:53;;;;;;;3.00;2.17;;;;;;;4.03;100.00;101187.25;10413833;28;20048;-72
2023/03/11 17:26:53;;;;;;;7.88;3.55;;;;;;;3.94;100.00;101189.81;10416899;28;20136;-72
2023/03/11 17:31:53;;;;;;;8.52;2.75;;;;;;;3.95;100.00;101185.28;10414616;28;20037;-72
2023/03/11 17:36:55;;;;;;;2.45;2.25;;;;;;;4.02;100.00;101189.09;10415250;28;20069;-72
2023/03/11 17:41:55;;;;;;;9.25;4.18;;;;;;;4.02;100.00;101191.78;10414530;28;20560;-72
2023/03/11 17:46:56;;;;;;;6.80;2.95;;;;;;;3.95;100.00;101191.50;10414362;28;20044;-72
2023/03/11 17:51:56;;;;;;;7.97;2.67;;;;;;;3.92;100.00;101207.88;10412960;28;20041;-72
2023/03/11 17:56:57;;;;;;;7.90;3.30;;;;;;;3.83;100.00;101210.56;10414224;28;20045;-72
2023/03/11 18:01:57;;;;;;;14.68;2.78;;;;;;;3.57;100.00;101213.88;10413062;28;20377;-72
2023/03/11 18:06:57;;;;;;;4.50;2.67;;;;;;;3.37;100.00;101210.41;10412253;28;20038;-72
2023/03/11 18:11:58;;;;;;;9.70;3.50;;;;;;;3.13;100.00;101218.91;10413930;28;20172;-72
2023/03/11 18:16:58;;;;;;;5.15;3.33;;;;;;;2.98;100.00;101218.47;10412593;28;20040;-72
2023/03/11 18:21:59;;;;;;;9.68;3.42;;;;;;;2.90;100.00;101220.97;10414454;28;20042;-72
2023/03/11 18:26:59;;;;;;;4.30;2.85;;;;;;;2.85;100.00;101217.06;10413360;28;20050;-72
2023/03/11 18:31:59;;;;;;;7.93;3.85;;;;;;;2.83;100.00;101230.53;10412529;28;20132;-73
2023/03/11 18:37:00;;;;;;;10.13;4.32;;;;;;;2.86;100.00;101230.28;10413804;28;20038;-72
2023/03/11 18:42:01;;;;;;;7.30;5.03;;;;;;;2.87;100.00;101236.47;10417736;28;20034;-73
2023/03/11 18:47:02;;;;;;;10.45;5.18;;;;;;;2.77;100.00;101234.63;10421759;28;20029;-72
2023/03/11 18:52:02;;;;;;;9.55;6.93;;;;;;;2.66;100.00;101239.25;10418779;28;20061;-73
2023/03/11 18:57:02;;;;;;;8.73;5.28;;;;;;;2.64;100.00;101233.19;10420704;28;20121;-72
2023/03/11 19:02:03;;;;;;;6.47;4.13;;;;;;;2.64;100.00;101228.69;10421177;28;20112;-72
2023/03/11 19:07:03;;;;;;;8.02;4.82;;;;;;;2.64;100.00;101228.69;10418888;28;20091;-72
2023/03/11 19:12:04;;;;;;;7.93;4.70;;;;;;;2.76;100.00;101229.41;10419663;28;20057;-72
2023/03/11 19:17:04;;;;;;;14.25;5.93;;;;;;;2.93;100.00;101220.69;10419552;28;20469;-72
2023/03/11 19:22:05;;;;;;;15.25;6.47;;;;;;;3.13;100.00;101226.09;10419219;28;20037;-72
2023/03/11 19:27:05;;;;;;;10.05;7.05;;;;;;;3.16;100.00;101217.75;10401361;28;20057;-72
2023/03/11 19:32:06;;;;;;;25.40;11.07;;;;;;;3.28;100.00;101213.09;10417712;28;20389;-72
2023/03/11 19:37:06;;;;;;;11.23;8.55;;;;;;;3.34;100.00;101220.56;10421016;28;20241;-72
2023/03/11 19:42:06;;;;;;;17.77;7.88;;;;;;;3.33;100.00;101216.19;10421649;28;20428;-72
2023/03/11 19:47:07;;;;;;;7.70;6.53;;;;;;;3.30;100.00;101219.16;10417283;28;20081;-72
2023/03/11 19:52:08;;;;;;;19.92;8.02;;;;;;;3.20;100.00;101211.13;10415928;28;20453;-72
2023/03/11 19:57:09;;;;;;;9.07;7.40;;;;;;;3.06;100.00;101214.22;10417327;28;20088;-72
2023/03/11 20:02:10;;;;;;;7.72;6.28;;;;;;;2.96;100.00;101220.41;10417908;28;20080;-73
2023/03/11 20:07:10;;;;;;;16.33;7.93;;;;;;;2.91;100.00;101214.66;10416645;28;20029;-72
2023/03/11 20:12:11;;;;;;;17.10;7.50;;;;;;;2.93;100.00;101217.19;10415732;28;20030;-72
2023/03/11 20:17:13;;;;;;;11.27;5.78;;;;;;;2.96;100.00;101214.22;10418439;28;20064;-72
2023/03/11 20:22:13;;;;;;;7.80;5.70;;;;;;;3.02;100.00;101219.03;10415876;28;20025;-73
2023/03/11 20:27:14;;;;;;;6.60;6.00;;;;;;;3.13;100.00;101216.22;10416806;28;20400;-72
2023/03/11 20:32:14;;;;;;;9.23;6.35;;;;;;;3.22;100.00;101217.19;10417757;28;20133;-72
2023/03/11 20:37:15;;;;;;;13.05;6.53;;;;;;;3.30;100.00;101206.63;10416402;28;20091;-72
2023/03/11 20:42:15;;;;;;;9.25;6.90;;;;;;;3.36;100.00;101207.88;10418841;28;20140;-72
2023/03/11 20:47:15;;;;;;;12.25;8.05;;;;;;;3.33;100.00;101206.34;10416325;28;20061;-72
2023/03/11 20:52:16;;;;;;;14.40;9.25;;;;;;;3.37;100.00;101199.69;10416574;28;20030;-72
2023/03/11 20:57:17;;;;;;;10.70;6.53;;;;;;;3.40;100.00;101199.41;10414677;28;20108;-73
2023/03/11 21:02:17;;;;;;;12.95;7.82;;;;;;;3.45;100.00;101199.00;10416591;28;20090;-73
2023/03/11 21:07:18;;;;;;;20.70;7.63;;;;;;;3.48;100.00;101198.72;10414857;28;20041;-72
2023/03/11 21:12:18;;;;;;;10.30;5.25;;;;;;;3.50;100.00;101202.06;10413943;28;20049;-73
2023/03/11 21:17:18;;;;;;;11.05;5.38;;;;;;;3.49;100.00;101187.84;10413708;28;20041;-72
2023/03/11 21:22:19;;;;;;;5.30;4.22;;;;;;;3.44;100.00;101192.78;10398353;28;20132;-73
2023/03/11 21:27:24;;;;;;;14.27;4.93;;;;;;;3.31;100.00;101186.88;10414012;28;20103;-73
2023/03/11 21:32:26;;;;;;;8.95;5.45;;;;;;;3.29;100.00;101194.22;10415334;28;20092;-73
2023/03/11 21:37:26;;;;;;;5.05;4.60;;;;;;;3.35;100.00;101190.13;10413926;28;20026;-72
2023/03/11 21:42:28;;;;;;;12.85;5.88;;;;;;;3.37;100.00;101190.81;10415152;28;20123;-73
2023/03/11 21:47:28;;;;;;;15.95;7.20;;;;;;;3.39;100.00;101188.88;10417828;28;20377;-72
2023/03/11 21:52:29;;;;;;;7.82;5.32;;;;;;;3.40;100.00;101182.50;10417986;28;20117;-73
2023/03/11 21:57:29;;;;;;;5.50;4.25;;;;;;;3.43;100.00;101168.84;10413775;28;20409;-72
2023/03/11 22:02:29;;;;;;;10.02;4.85;;;;;;;3.40;100.00;101167.28;10415706;28;20041;-72
2023/03/11 22:07:30;;;;;;;7.85;5.32;;;;;;;3.40;100.00;101169.13;10414167;28;20026;-72
2023/03/11 22:12:30;;;;;;;11.70;5.45;;;;;;;3.43;100.00;101164.31;10414302;28;20034;-73
2023/03/11 22:17:31;;;;;;;13.98;5.65;;;;;;;3.38;100.00;101163.06;10418022;28;20124;-72
2023/03/11 22:22:31;;;;;;;12.98;6.32;;;;;;;3.33;100.00;101163.50;10421283;28;20037;-72
2023/03/11 22:27:32;;;;;;;9.60;6.25;;;;;;;3.31;100.00;101151.25;10420922;28;20045;-73
2023/03/11 22:32:33;;;;;;;11.15;6.03;;;;;;;3.29;100.00;101146.06;10420276;28;20034;-72
2023/03/11 22:37:33;;;;;;;8.52;6.38;;;;;;;3.25;100.00;101141.97;10404442;28;20380;-72
2023/03/11 22:42:34;;;;;;;10.35;5.78;;;;;;;3.31;100.00;101140.53;10421653;28;20061;-73
2023/03/11 22:47:35;;;;;;;8.40;5.15;;;;;;;3.25;100.00;101133.94;10424016;28;20030;-73
2023/03/11 22:52:35;;;;;;;9.23;5.00;;;;;;;3.25;100.00;101144.63;10423584;28;20044;-73
2023/03/11 22:57:37;;;;;;;5.80;4.65;;;;;;;3.29;100.00;101131.81;10419290;28;20041;-73
2023/03/11 23:02:37;;;;;;;7.38;5.65;;;;;;;3.33;100.00;101130.53;10421726;28;20045;-72